sensor_id;sensor_type;location;lat;lon;timestamp;P1;durP1;ratioP1;P2;durP2;ratioP2
68074;SDS011;54864;52.002;5.468;2022-08-02T00:00:49;7.00;;;1.85;;
68074;SDS011;54864;52.002;5.468;2022-08-02T00:02:34;5.95;;;2.00;;
68074;SDS011;54864;52.002;5.468;2022-08-02T00:04:07;6.70;;;1.80;;
68074;SDS011;54864;52.002;5.468;2022-08-02T00:05:41;6.93;;;1.75;;
68074;SDS011;54864;52.002;5.468;2022-08-02T00:07:23;3.05;;;1.70;;
68074;SDS011;54864;52.002;5.468;2022-08-02T00:08:45;4.72;;;2.05;;
68074;SDS011;54864;52.002;5.468;2022-08-02T00:10:22;6.57;;;1.80;;
68074;SDS011;54864;52.002;5.468;2022-08-02T00:12:27;5.53;;;2.00;;
68074;SDS011;54864;52.002;5.468;2022-08-02T00:14:23;6.90;;;1.75;;
68074;SDS011;54864;52.002;5.468;2022-08-02T00:16:04;3.95;;;1.52;;
68074;SDS011;54864;52.002;5.468;2022-08-02T00:18:11;5.82;;;1.70;;
68074;SDS011;54864;52.002;5.468;2022-08-02T00:20:46;4.35;;;1.90;;
68074;SDS011;54864;52.002;5.468;2022-08-02T00:22:32;4.32;;;1.77;;
68074;SDS011;54864;52.002;5.468;2022-08-02T00:24:14;6.28;;;1.88;;
68074;SDS011;54864;52.002;5.468;2022-08-02T00:25:56;6.07;;;1.70;;
68074;SDS011;54864;52.002;5.468;2022-08-02T00:27:39;5.07;;;1.85;;
68074;SDS011;54864;52.002;5.468;2022-08-02T00:29:17;3.28;;;1.58;;
68074;SDS011;54864;52.002;5.468;2022-08-02T00:31:16;4.28;;;1.73;;
68074;SDS011;54864;52.002;5.468;2022-08-02T00:33:48;5.50;;;1.70;;
68074;SDS011;54864;52.002;5.468;2022-08-02T00:37:47;3.90;;;1.77;;
68074;SDS011;54864;52.002;5.468;2022-08-02T00:39:30;6.95;;;1.60;;
68074;SDS011;54864;52.002;5.468;2022-08-02T00:41:15;5.20;;;1.60;;
68074;SDS011;54864;52.002;5.468;2022-08-02T00:43:47;4.57;;;1.60;;
68074;SDS011;54864;52.002;5.468;2022-08-02T00:45:20;4.63;;;1.70;;
68074;SDS011;54864;52.002;5.468;2022-08-02T00:49:03;8.32;;;1.63;;
68074;SDS011;54864;52.002;5.468;2022-08-02T00:53:24;4.88;;;1.98;;
68074;SDS011;54864;52.002;5.468;2022-08-02T00:55:02;7.70;;;1.53;;
68074;SDS011;54864;52.002;5.468;2022-08-02T00:56:31;4.80;;;1.88;;
68074;SDS011;54864;52.002;5.468;2022-08-02T00:58:09;4.82;;;1.70;;
68074;SDS011;54864;52.002;5.468;2022-08-02T00:59:53;6.00;;;1.75;;
68074;SDS011;54864;52.002;5.468;2022-08-02T01:01:21;6.57;;;2.15;;
68074;SDS011;54864;52.002;5.468;2022-08-02T01:05:13;6.30;;;1.90;;
68074;SDS011;54864;52.002;5.468;2022-08-02T01:07:21;6.03;;;1.95;;
68074;SDS011;54864;52.002;5.468;2022-08-02T01:09:43;4.18;;;1.70;;
68074;SDS011;54864;52.002;5.468;2022-08-02T01:12:04;4.40;;;1.77;;
68074;SDS011;54864;52.002;5.468;2022-08-02T01:13:45;8.75;;;2.17;;
68074;SDS011;54864;52.002;5.468;2022-08-02T01:15:41;5.90;;;1.92;;
68074;SDS011;54864;52.002;5.468;2022-08-02T01:17:28;6.28;;;2.00;;
68074;SDS011;54864;52.002;5.468;2022-08-02T01:29:07;4.53;;;1.90;;
68074;SDS011;54864;52.002;5.468;2022-08-02T01:30:54;8.50;;;2.22;;
68074;SDS011;54864;52.002;5.468;2022-08-02T01:32:32;5.80;;;1.95;;
68074;SDS011;54864;52.002;5.468;2022-08-02T01:34:38;5.05;;;1.75;;
68074;SDS011;54864;52.002;5.468;2022-08-02T01:36:10;3.97;;;2.10;;
68074;SDS011;54864;52.002;5.468;2022-08-02T01:37:38;4.93;;;1.98;;
68074;SDS011;54864;52.002;5.468;2022-08-02T01:39:08;7.40;;;1.90;;
68074;SDS011;54864;52.002;5.468;2022-08-02T01:40:48;5.80;;;2.03;;
68074;SDS011;54864;52.002;5.468;2022-08-02T01:42:30;7.88;;;2.08;;
68074;SDS011;54864;52.002;5.468;2022-08-02T01:44:31;5.30;;;2.08;;
68074;SDS011;54864;52.002;5.468;2022-08-02T01:46:10;5.30;;;1.98;;
68074;SDS011;54864;52.002;5.468;2022-08-02T01:47:35;4.60;;;1.75;;
68074;SDS011;54864;52.002;5.468;2022-08-02T01:49:14;5.68;;;2.00;;
68074;SDS011;54864;52.002;5.468;2022-08-02T01:54:35;7.75;;;2.65;;
68074;SDS011;54864;52.002;5.468;2022-08-02T01:55:58;5.10;;;1.90;;
68074;SDS011;54864;52.002;5.468;2022-08-02T01:57:35;8.27;;;2.00;;
68074;SDS011;54864;52.002;5.468;2022-08-02T01:59:20;8.27;;;2.10;;
68074;SDS011;54864;52.002;5.468;2022-08-02T02:01:12;9.23;;;2.30;;
68074;SDS011;54864;52.002;5.468;2022-08-02T02:02:51;8.13;;;2.20;;
68074;SDS011;54864;52.002;5.468;2022-08-02T02:04:23;5.85;;;2.00;;
68074;SDS011;54864;52.002;5.468;2022-08-02T02:05:48;5.53;;;1.92;;
68074;SDS011;54864;52.002;5.468;2022-08-02T02:07:23;4.40;;;1.83;;
68074;SDS011;54864;52.002;5.468;2022-08-02T02:09:00;8.57;;;2.42;;
68074;SDS011;54864;52.002;5.468;2022-08-02T02:10:50;8.80;;;2.40;;
68074;SDS011;54864;52.002;5.468;2022-08-02T02:12:41;9.15;;;2.50;;
68074;SDS011;54864;52.002;5.468;2022-08-02T02:14:34;7.38;;;1.90;;
68074;SDS011;54864;52.002;5.468;2022-08-02T02:15:58;6.80;;;2.05;;
68074;SDS011;54864;52.002;5.468;2022-08-02T02:17:50;7.13;;;2.30;;
68074;SDS011;54864;52.002;5.468;2022-08-02T02:19:48;4.95;;;2.08;;
68074;SDS011;54864;52.002;5.468;2022-08-02T02:21:29;12.27;;;2.38;;
68074;SDS011;54864;52.002;5.468;2022-08-02T02:23:08;6.40;;;1.90;;
68074;SDS011;54864;52.002;5.468;2022-08-02T02:24:46;8.57;;;2.67;;
68074;SDS011;54864;52.002;5.468;2022-08-02T02:27:03;6.47;;;1.90;;
68074;SDS011;54864;52.002;5.468;2022-08-02T02:28:33;8.15;;;2.40;;
68074;SDS011;54864;52.002;5.468;2022-08-02T02:30:10;6.45;;;2.28;;
68074;SDS011;54864;52.002;5.468;2022-08-02T02:32:19;9.95;;;2.50;;
68074;SDS011;54864;52.002;5.468;2022-08-02T02:34:02;6.13;;;2.38;;
68074;SDS011;54864;52.002;5.468;2022-08-02T02:35:40;5.90;;;2.20;;
68074;SDS011;54864;52.002;5.468;2022-08-02T02:37:21;5.60;;;2.00;;
68074;SDS011;54864;52.002;5.468;2022-08-02T02:38:51;6.22;;;2.10;;
68074;SDS011;54864;52.002;5.468;2022-08-02T02:40:15;7.63;;;2.60;;
68074;SDS011;54864;52.002;5.468;2022-08-02T02:42:21;8.38;;;2.70;;
68074;SDS011;54864;52.002;5.468;2022-08-02T02:44:27;10.63;;;2.58;;
68074;SDS011;54864;52.002;5.468;2022-08-02T02:46:05;8.68;;;2.10;;
68074;SDS011;54864;52.002;5.468;2022-08-02T02:47:46;5.53;;;2.22;;
68074;SDS011;54864;52.002;5.468;2022-08-02T02:53:15;10.73;;;3.00;;
68074;SDS011;54864;52.002;5.468;2022-08-02T02:56:57;9.57;;;2.60;;
68074;SDS011;54864;52.002;5.468;2022-08-02T02:58:41;7.35;;;2.40;;
68074;SDS011;54864;52.002;5.468;2022-08-02T03:00:25;9.90;;;2.03;;
68074;SDS011;54864;52.002;5.468;2022-08-02T03:02:13;8.75;;;2.40;;
68074;SDS011;54864;52.002;5.468;2022-08-02T03:03:54;10.82;;;2.55;;
68074;SDS011;54864;52.002;5.468;2022-08-02T03:05:22;7.38;;;2.50;;
68074;SDS011;54864;52.002;5.468;2022-08-02T03:06:45;5.60;;;2.40;;
68074;SDS011;54864;52.002;5.468;2022-08-02T03:08:09;5.50;;;2.20;;
68074;SDS011;54864;52.002;5.468;2022-08-02T03:09:42;9.68;;;2.80;;
68074;SDS011;54864;52.002;5.468;2022-08-02T03:11:05;7.20;;;2.10;;
68074;SDS011;54864;52.002;5.468;2022-08-02T03:12:57;6.75;;;2.20;;
68074;SDS011;54864;52.002;5.468;2022-08-02T03:14:40;5.67;;;2.10;;
68074;SDS011;54864;52.002;5.468;2022-08-02T03:16:04;6.80;;;2.58;;
68074;SDS011;54864;52.002;5.468;2022-08-02T03:17:51;9.70;;;2.58;;
68074;SDS011;54864;52.002;5.468;2022-08-02T03:19:28;8.23;;;2.45;;
68074;SDS011;54864;52.002;5.468;2022-08-02T03:20:53;7.68;;;2.30;;
68074;SDS011;54864;52.002;5.468;2022-08-02T03:22:41;5.20;;;2.28;;
68074;SDS011;54864;52.002;5.468;2022-08-02T03:24:35;9.15;;;2.33;;
68074;SDS011;54864;52.002;5.468;2022-08-02T03:26:36;6.50;;;2.00;;
68074;SDS011;54864;52.002;5.468;2022-08-02T03:28:25;7.85;;;2.35;;
68074;SDS011;54864;52.002;5.468;2022-08-02T03:30:08;5.85;;;1.92;;
68074;SDS011;54864;52.002;5.468;2022-08-02T03:31:36;6.55;;;1.90;;
68074;SDS011;54864;52.002;5.468;2022-08-02T03:33:17;5.88;;;2.28;;
68074;SDS011;54864;52.002;5.468;2022-08-02T03:34:42;7.57;;;2.70;;
68074;SDS011;54864;52.002;5.468;2022-08-02T03:36:06;7.30;;;2.40;;
68074;SDS011;54864;52.002;5.468;2022-08-02T03:38:06;6.68;;;2.10;;
68074;SDS011;54864;52.002;5.468;2022-08-02T03:40:04;3.38;;;2.03;;
68074;SDS011;54864;52.002;5.468;2022-08-02T03:42:03;5.95;;;2.10;;
68074;SDS011;54864;52.002;5.468;2022-08-02T03:44:00;7.95;;;2.13;;
68074;SDS011;54864;52.002;5.468;2022-08-02T03:45:38;4.47;;;2.22;;
68074;SDS011;54864;52.002;5.468;2022-08-02T03:47:21;7.63;;;2.13;;
68074;SDS011;54864;52.002;5.468;2022-08-02T03:49:22;7.10;;;2.20;;
68074;SDS011;54864;52.002;5.468;2022-08-02T03:51:00;5.68;;;2.38;;
68074;SDS011;54864;52.002;5.468;2022-08-02T03:52:54;5.05;;;2.50;;
68074;SDS011;54864;52.002;5.468;2022-08-02T03:54:33;6.85;;;2.05;;
68074;SDS011;54864;52.002;5.468;2022-08-02T03:58:34;7.43;;;2.50;;
68074;SDS011;54864;52.002;5.468;2022-08-02T04:00:31;10.57;;;2.42;;
68074;SDS011;54864;52.002;5.468;2022-08-02T04:02:17;6.85;;;2.40;;
68074;SDS011;54864;52.002;5.468;2022-08-02T04:03:54;4.78;;;2.70;;
68074;SDS011;54864;52.002;5.468;2022-08-02T04:05:16;6.30;;;2.60;;
68074;SDS011;54864;52.002;5.468;2022-08-02T04:06:55;8.40;;;2.53;;
68074;SDS011;54864;52.002;5.468;2022-08-02T04:08:31;5.55;;;2.35;;
68074;SDS011;54864;52.002;5.468;2022-08-02T04:10:07;4.50;;;2.50;;
68074;SDS011;54864;52.002;5.468;2022-08-02T04:11:34;4.28;;;2.38;;
68074;SDS011;54864;52.002;5.468;2022-08-02T04:12:55;9.15;;;2.60;;
68074;SDS011;54864;52.002;5.468;2022-08-02T04:14:20;11.43;;;2.80;;
68074;SDS011;54864;52.002;5.468;2022-08-02T04:15:46;6.72;;;2.90;;
68074;SDS011;54864;52.002;5.468;2022-08-02T04:17:14;10.43;;;2.78;;
68074;SDS011;54864;52.002;5.468;2022-08-02T04:18:59;11.65;;;2.95;;
68074;SDS011;54864;52.002;5.468;2022-08-02T04:20:39;5.43;;;3.05;;
68074;SDS011;54864;52.002;5.468;2022-08-02T04:22:03;9.55;;;2.97;;
68074;SDS011;54864;52.002;5.468;2022-08-02T04:23:30;7.50;;;3.15;;
68074;SDS011;54864;52.002;5.468;2022-08-02T04:25:05;5.40;;;2.47;;
68074;SDS011;54864;52.002;5.468;2022-08-02T04:26:44;7.00;;;2.53;;
68074;SDS011;54864;52.002;5.468;2022-08-02T04:28:40;10.23;;;3.40;;
68074;SDS011;54864;52.002;5.468;2022-08-02T04:30:08;9.20;;;2.97;;
68074;SDS011;54864;52.002;5.468;2022-08-02T04:31:51;6.45;;;2.83;;
68074;SDS011;54864;52.002;5.468;2022-08-02T04:33:37;9.18;;;2.85;;
68074;SDS011;54864;52.002;5.468;2022-08-02T04:35:15;9.13;;;3.35;;
68074;SDS011;54864;52.002;5.468;2022-08-02T04:36:37;6.50;;;3.40;;
68074;SDS011;54864;52.002;5.468;2022-08-02T04:38:11;8.10;;;3.53;;
68074;SDS011;54864;52.002;5.468;2022-08-02T04:39:43;10.85;;;3.00;;
68074;SDS011;54864;52.002;5.468;2022-08-02T04:41:06;7.57;;;3.05;;
68074;SDS011;54864;52.002;5.468;2022-08-02T04:42:41;7.53;;;2.80;;
68074;SDS011;54864;52.002;5.468;2022-08-02T04:44:19;10.45;;;2.95;;
68074;SDS011;54864;52.002;5.468;2022-08-02T04:46:02;8.57;;;2.83;;
68074;SDS011;54864;52.002;5.468;2022-08-02T04:47:41;11.68;;;3.08;;
68074;SDS011;54864;52.002;5.468;2022-08-02T04:49:23;7.60;;;3.20;;
68074;SDS011;54864;52.002;5.468;2022-08-02T04:50:46;9.77;;;3.27;;
68074;SDS011;54864;52.002;5.468;2022-08-02T04:52:32;7.05;;;3.28;;
68074;SDS011;54864;52.002;5.468;2022-08-02T04:54:21;7.45;;;2.50;;
68074;SDS011;54864;52.002;5.468;2022-08-02T04:55:50;7.78;;;2.80;;
68074;SDS011;54864;52.002;5.468;2022-08-02T04:57:27;9.38;;;2.95;;
68074;SDS011;54864;52.002;5.468;2022-08-02T04:59:09;8.52;;;3.17;;
68074;SDS011;54864;52.002;5.468;2022-08-02T05:01:05;8.98;;;2.80;;
68074;SDS011;54864;52.002;5.468;2022-08-02T05:02:58;7.22;;;3.13;;
68074;SDS011;54864;52.002;5.468;2022-08-02T05:04:22;6.07;;;2.92;;
68074;SDS011;54864;52.002;5.468;2022-08-02T05:05:44;4.78;;;2.80;;
68074;SDS011;54864;52.002;5.468;2022-08-02T05:07:07;7.55;;;2.72;;
68074;SDS011;54864;52.002;5.468;2022-08-02T05:08:29;10.15;;;2.63;;
68074;SDS011;54864;52.002;5.468;2022-08-02T05:10:21;5.93;;;3.00;;
68074;SDS011;54864;52.002;5.468;2022-08-02T05:11:58;6.57;;;3.03;;
68074;SDS011;54864;52.002;5.468;2022-08-02T05:13:36;7.57;;;2.63;;
68074;SDS011;54864;52.002;5.468;2022-08-02T05:14:59;7.93;;;3.10;;
68074;SDS011;54864;52.002;5.468;2022-08-02T05:16:38;8.00;;;2.93;;
68074;SDS011;54864;52.002;5.468;2022-08-02T05:18:18;7.80;;;3.03;;
68074;SDS011;54864;52.002;5.468;2022-08-02T05:19:53;8.77;;;2.97;;
68074;SDS011;54864;52.002;5.468;2022-08-02T05:21:21;8.82;;;2.90;;
68074;SDS011;54864;52.002;5.468;2022-08-02T05:22:58;12.25;;;3.38;;
68074;SDS011;54864;52.002;5.468;2022-08-02T05:24:43;7.53;;;2.72;;
68074;SDS011;54864;52.002;5.468;2022-08-02T05:26:39;7.40;;;2.92;;
68074;SDS011;54864;52.002;5.468;2022-08-02T05:28:17;8.15;;;3.03;;
68074;SDS011;54864;52.002;5.468;2022-08-02T05:29:45;10.05;;;4.60;;
68074;SDS011;54864;52.002;5.468;2022-08-02T05:31:18;7.85;;;3.35;;
68074;SDS011;54864;52.002;5.468;2022-08-02T05:32:59;6.38;;;3.10;;
68074;SDS011;54864;52.002;5.468;2022-08-02T05:34:44;10.52;;;3.53;;
68074;SDS011;54864;52.002;5.468;2022-08-02T05:36:10;10.02;;;3.63;;
68074;SDS011;54864;52.002;5.468;2022-08-02T05:37:51;10.23;;;3.70;;
68074;SDS011;54864;52.002;5.468;2022-08-02T05:39:14;9.00;;;3.08;;
68074;SDS011;54864;52.002;5.468;2022-08-02T05:40:36;8.70;;;3.97;;
68074;SDS011;54864;52.002;5.468;2022-08-02T05:41:47;6.25;;;2.88;;
68074;SDS011;54864;52.002;5.468;2022-08-02T05:43:14;11.75;;;3.70;;
68074;SDS011;54864;52.002;5.468;2022-08-02T05:44:36;8.63;;;3.25;;
68074;SDS011;54864;52.002;5.468;2022-08-02T05:45:59;7.82;;;3.92;;
68074;SDS011;54864;52.002;5.468;2022-08-02T05:47:21;11.38;;;4.22;;
68074;SDS011;54864;52.002;5.468;2022-08-02T05:48:50;7.68;;;3.60;;
68074;SDS011;54864;52.002;5.468;2022-08-02T05:50:27;12.90;;;3.97;;
68074;SDS011;54864;52.002;5.468;2022-08-02T05:51:51;9.35;;;4.20;;
68074;SDS011;54864;52.002;5.468;2022-08-02T05:53:27;7.93;;;3.67;;
68074;SDS011;54864;52.002;5.468;2022-08-02T05:55:01;13.80;;;4.32;;
68074;SDS011;54864;52.002;5.468;2022-08-02T05:56:30;8.50;;;3.58;;
68074;SDS011;54864;52.002;5.468;2022-08-02T05:58:00;13.82;;;5.20;;
68074;SDS011;54864;52.002;5.468;2022-08-02T05:59:30;8.65;;;4.07;;
68074;SDS011;54864;52.002;5.468;2022-08-02T06:00:59;10.10;;;4.35;;
68074;SDS011;54864;52.002;5.468;2022-08-02T06:02:28;13.13;;;5.30;;
68074;SDS011;54864;52.002;5.468;2022-08-02T06:03:55;11.52;;;5.45;;
68074;SDS011;54864;52.002;5.468;2022-08-02T06:05:19;8.73;;;4.65;;
68074;SDS011;54864;52.002;5.468;2022-08-02T06:06:42;12.95;;;5.18;;
68074;SDS011;54864;52.002;5.468;2022-08-02T06:08:05;10.63;;;4.63;;
68074;SDS011;54864;52.002;5.468;2022-08-02T06:09:29;15.18;;;5.30;;
68074;SDS011;54864;52.002;5.468;2022-08-02T06:10:53;15.05;;;5.30;;
68074;SDS011;54864;52.002;5.468;2022-08-02T06:12:19;10.38;;;5.07;;
68074;SDS011;54864;52.002;5.468;2022-08-02T06:13:42;8.13;;;4.30;;
68074;SDS011;54864;52.002;5.468;2022-08-02T06:15:07;11.65;;;4.78;;
68074;SDS011;54864;52.002;5.468;2022-08-02T06:16:30;13.35;;;4.40;;
68074;SDS011;54864;52.002;5.468;2022-08-02T06:17:53;10.30;;;4.78;;
68074;SDS011;54864;52.002;5.468;2022-08-02T06:19:17;9.75;;;4.00;;
68074;SDS011;54864;52.002;5.468;2022-08-02T06:20:40;10.75;;;4.22;;
68074;SDS011;54864;52.002;5.468;2022-08-02T06:22:02;8.77;;;4.13;;
68074;SDS011;54864;52.002;5.468;2022-08-02T06:23:35;9.57;;;3.63;;
68074;SDS011;54864;52.002;5.468;2022-08-02T06:25:04;11.82;;;4.63;;
68074;SDS011;54864;52.002;5.468;2022-08-02T06:26:27;10.90;;;4.63;;
68074;SDS011;54864;52.002;5.468;2022-08-02T06:27:49;10.52;;;4.30;;
68074;SDS011;54864;52.002;5.468;2022-08-02T06:29:14;11.82;;;4.25;;
68074;SDS011;54864;52.002;5.468;2022-08-02T06:30:36;8.82;;;5.18;;
68074;SDS011;54864;52.002;5.468;2022-08-02T06:32:00;12.57;;;5.28;;
68074;SDS011;54864;52.002;5.468;2022-08-02T06:33:22;16.98;;;6.50;;
68074;SDS011;54864;52.002;5.468;2022-08-02T06:34:46;12.43;;;6.05;;
68074;SDS011;54864;52.002;5.468;2022-08-02T06:36:09;14.43;;;6.35;;
68074;SDS011;54864;52.002;5.468;2022-08-02T06:37:40;13.63;;;6.50;;
68074;SDS011;54864;52.002;5.468;2022-08-02T06:39:08;13.10;;;6.70;;
68074;SDS011;54864;52.002;5.468;2022-08-02T06:40:39;20.40;;;7.18;;
68074;SDS011;54864;52.002;5.468;2022-08-02T06:42:09;14.27;;;6.90;;
68074;SDS011;54864;52.002;5.468;2022-08-02T06:43:35;11.55;;;6.82;;
68074;SDS011;54864;52.002;5.468;2022-08-02T06:52:49;19.50;;;8.30;;
68074;SDS011;54864;52.002;5.468;2022-08-02T06:54:11;19.17;;;7.93;;
68074;SDS011;54864;52.002;5.468;2022-08-02T06:55:38;18.10;;;8.23;;
68074;SDS011;54864;52.002;5.468;2022-08-02T06:57:00;14.98;;;8.40;;
68074;SDS011;54864;52.002;5.468;2022-08-02T06:58:21;18.23;;;9.40;;
68074;SDS011;54864;52.002;5.468;2022-08-02T06:59:43;16.45;;;8.63;;
68074;SDS011;54864;52.002;5.468;2022-08-02T07:01:06;15.43;;;8.75;;
68074;SDS011;54864;52.002;5.468;2022-08-02T07:02:29;15.68;;;8.80;;
68074;SDS011;54864;52.002;5.468;2022-08-02T07:03:50;15.20;;;9.20;;
68074;SDS011;54864;52.002;5.468;2022-08-02T07:05:13;13.55;;;9.20;;
68074;SDS011;54864;52.002;5.468;2022-08-02T07:06:35;13.98;;;9.45;;
68074;SDS011;54864;52.002;5.468;2022-08-02T07:07:58;17.75;;;9.60;;
68074;SDS011;54864;52.002;5.468;2022-08-02T07:09:22;15.05;;;10.00;;
68074;SDS011;54864;52.002;5.468;2022-08-02T07:10:43;17.02;;;10.05;;
68074;SDS011;54864;52.002;5.468;2022-08-02T07:12:06;14.25;;;9.13;;
68074;SDS011;54864;52.002;5.468;2022-08-02T07:13:27;15.23;;;9.38;;
68074;SDS011;54864;52.002;5.468;2022-08-02T07:14:49;18.80;;;10.03;;
68074;SDS011;54864;52.002;5.468;2022-08-02T07:16:11;18.63;;;9.77;;
68074;SDS011;54864;52.002;5.468;2022-08-02T07:17:33;16.27;;;10.65;;
68074;SDS011;54864;52.002;5.468;2022-08-02T07:18:56;14.40;;;9.18;;
68074;SDS011;54864;52.002;5.468;2022-08-02T07:20:18;17.10;;;10.25;;
68074;SDS011;54864;52.002;5.468;2022-08-02T07:21:40;16.13;;;10.05;;
68074;SDS011;54864;52.002;5.468;2022-08-02T07:23:03;22.92;;;11.70;;
68074;SDS011;54864;52.002;5.468;2022-08-02T07:24:25;17.47;;;10.83;;
68074;SDS011;54864;52.002;5.468;2022-08-02T07:25:46;17.08;;;10.13;;
68074;SDS011;54864;52.002;5.468;2022-08-02T07:27:09;18.67;;;10.23;;
68074;SDS011;54864;52.002;5.468;2022-08-02T07:28:31;15.05;;;10.15;;
68074;SDS011;54864;52.002;5.468;2022-08-02T07:29:55;14.77;;;10.77;;
68074;SDS011;54864;52.002;5.468;2022-08-02T07:31:17;15.40;;;11.10;;
68074;SDS011;54864;52.002;5.468;2022-08-02T07:32:39;17.00;;;10.93;;
68074;SDS011;54864;52.002;5.468;2022-08-02T07:34:01;18.35;;;11.40;;
68074;SDS011;54864;52.002;5.468;2022-08-02T07:35:23;16.75;;;11.02;;
68074;SDS011;54864;52.002;5.468;2022-08-02T07:36:46;16.67;;;11.30;;
68074;SDS011;54864;52.002;5.468;2022-08-02T07:38:09;21.45;;;12.02;;
68074;SDS011;54864;52.002;5.468;2022-08-02T07:39:32;24.58;;;12.07;;
68074;SDS011;54864;52.002;5.468;2022-08-02T07:40:54;18.50;;;12.00;;
68074;SDS011;54864;52.002;5.468;2022-08-02T07:42:16;22.85;;;12.98;;
68074;SDS011;54864;52.002;5.468;2022-08-02T07:43:37;17.13;;;12.23;;
68074;SDS011;54864;52.002;5.468;2022-08-02T07:45:00;17.92;;;12.98;;
68074;SDS011;54864;52.002;5.468;2022-08-02T07:46:22;22.52;;;13.60;;
68074;SDS011;54864;52.002;5.468;2022-08-02T07:47:45;21.50;;;13.98;;
68074;SDS011;54864;52.002;5.468;2022-08-02T07:49:07;19.00;;;12.85;;
68074;SDS011;54864;52.002;5.468;2022-08-02T07:50:29;19.33;;;13.27;;
68074;SDS011;54864;52.002;5.468;2022-08-02T07:51:51;19.33;;;13.25;;
68074;SDS011;54864;52.002;5.468;2022-08-02T07:53:15;21.93;;;13.57;;
68074;SDS011;54864;52.002;5.468;2022-08-02T07:54:38;23.53;;;13.67;;
68074;SDS011;54864;52.002;5.468;2022-08-02T07:56:00;22.73;;;13.93;;
68074;SDS011;54864;52.002;5.468;2022-08-02T07:57:37;22.15;;;12.75;;
68074;SDS011;54864;52.002;5.468;2022-08-02T07:59:01;21.67;;;13.50;;
68074;SDS011;54864;52.002;5.468;2022-08-02T08:01:37;23.50;;;13.68;;
68074;SDS011;54864;52.002;5.468;2022-08-02T08:06:11;20.77;;;13.13;;
68074;SDS011;54864;52.002;5.468;2022-08-02T08:07:53;18.08;;;13.15;;
68074;SDS011;54864;52.002;5.468;2022-08-02T08:09:40;20.45;;;13.57;;
68074;SDS011;54864;52.002;5.468;2022-08-02T08:11:20;19.90;;;12.80;;
68074;SDS011;54864;52.002;5.468;2022-08-02T08:15:37;17.25;;;10.50;;
68074;SDS011;54864;52.002;5.468;2022-08-02T08:17:18;15.77;;;10.20;;
68074;SDS011;54864;52.002;5.468;2022-08-02T08:18:56;16.48;;;9.50;;
68074;SDS011;54864;52.002;5.468;2022-08-02T08:21:45;13.93;;;8.90;;
68074;SDS011;54864;52.002;5.468;2022-08-02T08:23:21;11.35;;;8.23;;
68074;SDS011;54864;52.002;5.468;2022-08-02T08:24:53;16.52;;;8.57;;
68074;SDS011;54864;52.002;5.468;2022-08-02T08:28:56;15.32;;;7.97;;
68074;SDS011;54864;52.002;5.468;2022-08-02T08:30:20;12.98;;;7.47;;
68074;SDS011;54864;52.002;5.468;2022-08-02T08:31:42;10.95;;;7.30;;
68074;SDS011;54864;52.002;5.468;2022-08-02T08:33:07;11.02;;;6.70;;
68074;SDS011;54864;52.002;5.468;2022-08-02T08:34:30;9.35;;;6.10;;
68074;SDS011;54864;52.002;5.468;2022-08-02T08:35:54;12.48;;;6.32;;
68074;SDS011;54864;52.002;5.468;2022-08-02T08:37:16;10.20;;;5.90;;
68074;SDS011;54864;52.002;5.468;2022-08-02T08:38:38;7.68;;;5.45;;
68074;SDS011;54864;52.002;5.468;2022-08-02T08:40:03;8.75;;;5.82;;
68074;SDS011;54864;52.002;5.468;2022-08-02T08:41:30;11.82;;;6.30;;
68074;SDS011;54864;52.002;5.468;2022-08-02T08:42:52;12.07;;;6.20;;
68074;SDS011;54864;52.002;5.468;2022-08-02T08:44:13;10.07;;;6.32;;
68074;SDS011;54864;52.002;5.468;2022-08-02T08:45:36;9.35;;;6.07;;
68074;SDS011;54864;52.002;5.468;2022-08-02T08:46:58;12.40;;;6.35;;
68074;SDS011;54864;52.002;5.468;2022-08-02T08:48:22;9.82;;;5.78;;
68074;SDS011;54864;52.002;5.468;2022-08-02T08:49:46;8.98;;;5.43;;
68074;SDS011;54864;52.002;5.468;2022-08-02T08:51:35;9.30;;;6.05;;
68074;SDS011;54864;52.002;5.468;2022-08-02T08:53:26;8.57;;;6.18;;
68074;SDS011;54864;52.002;5.468;2022-08-02T08:55:10;10.45;;;6.28;;
68074;SDS011;54864;52.002;5.468;2022-08-02T08:56:47;9.38;;;5.63;;
68074;SDS011;54864;52.002;5.468;2022-08-02T08:58:26;13.68;;;5.90;;
68074;SDS011;54864;52.002;5.468;2022-08-02T09:00:07;8.07;;;5.15;;
68074;SDS011;54864;52.002;5.468;2022-08-02T09:01:50;7.80;;;5.00;;
68074;SDS011;54864;52.002;5.468;2022-08-02T09:04:09;5.95;;;4.40;;
68074;SDS011;54864;52.002;5.468;2022-08-02T09:05:28;6.63;;;4.70;;
68074;SDS011;54864;52.002;5.468;2022-08-02T09:07:14;11.15;;;4.90;;
68074;SDS011;54864;52.002;5.468;2022-08-02T09:08:50;9.13;;;5.10;;
68074;SDS011;54864;52.002;5.468;2022-08-02T09:12:11;9.27;;;5.07;;
68074;SDS011;54864;52.002;5.468;2022-08-02T09:13:35;9.18;;;5.25;;
68074;SDS011;54864;52.002;5.468;2022-08-02T09:14:57;9.60;;;4.82;;
68074;SDS011;54864;52.002;5.468;2022-08-02T09:16:26;11.40;;;5.25;;
68074;SDS011;54864;52.002;5.468;2022-08-02T09:17:51;10.95;;;5.45;;
68074;SDS011;54864;52.002;5.468;2022-08-02T09:19:33;12.38;;;5.20;;
68074;SDS011;54864;52.002;5.468;2022-08-02T09:21:07;10.35;;;5.30;;
68074;SDS011;54864;52.002;5.468;2022-08-02T09:24:22;9.35;;;5.65;;
68074;SDS011;54864;52.002;5.468;2022-08-02T09:25:15;10.45;;;5.85;;
68074;SDS011;54864;52.002;5.468;2022-08-02T09:29:04;9.55;;;5.72;;
68074;SDS011;54864;52.002;5.468;2022-08-02T09:31:26;9.25;;;5.28;;
68074;SDS011;54864;52.002;5.468;2022-08-02T09:32:51;8.95;;;5.85;;
68074;SDS011;54864;52.002;5.468;2022-08-02T09:48:29;9.05;;;5.53;;
68074;SDS011;54864;52.002;5.468;2022-08-02T09:51:24;8.73;;;5.55;;
68074;SDS011;54864;52.002;5.468;2022-08-02T09:52:55;9.65;;;6.13;;
68074;SDS011;54864;52.002;5.468;2022-08-02T09:54:19;8.57;;;5.57;;
68074;SDS011;54864;52.002;5.468;2022-08-02T09:55:53;8.23;;;5.47;;
68074;SDS011;54864;52.002;5.468;2022-08-02T09:57:23;9.93;;;5.43;;
68074;SDS011;54864;52.002;5.468;2022-08-02T09:58:47;5.80;;;5.15;;
68074;SDS011;54864;52.002;5.468;2022-08-02T10:00:12;9.38;;;5.43;;
68074;SDS011;54864;52.002;5.468;2022-08-02T10:01:35;8.07;;;4.55;;
68074;SDS011;54864;52.002;5.468;2022-08-02T10:03:04;12.27;;;4.95;;
68074;SDS011;54864;52.002;5.468;2022-08-02T10:04:30;7.22;;;5.05;;
68074;SDS011;54864;52.002;5.468;2022-08-02T10:05:53;9.90;;;5.25;;
68074;SDS011;54864;52.002;5.468;2022-08-02T10:07:17;9.70;;;4.90;;
68074;SDS011;54864;52.002;5.468;2022-08-02T10:08:40;9.35;;;4.82;;
68074;SDS011;54864;52.002;5.468;2022-08-02T10:10:02;7.95;;;4.68;;
68074;SDS011;54864;52.002;5.468;2022-08-02T10:11:27;7.18;;;4.28;;
68074;SDS011;54864;52.002;5.468;2022-08-02T10:12:49;6.70;;;5.40;;
68074;SDS011;54864;52.002;5.468;2022-08-02T10:14:11;7.20;;;5.30;;
68074;SDS011;54864;52.002;5.468;2022-08-02T10:15:34;8.98;;;5.40;;
68074;SDS011;54864;52.002;5.468;2022-08-02T10:16:56;8.75;;;5.60;;
68074;SDS011;54864;52.002;5.468;2022-08-02T10:18:18;9.65;;;4.72;;
68074;SDS011;54864;52.002;5.468;2022-08-02T10:19:41;8.45;;;4.88;;
68074;SDS011;54864;52.002;5.468;2022-08-02T10:21:05;7.72;;;4.43;;
68074;SDS011;54864;52.002;5.468;2022-08-02T10:22:41;9.05;;;4.80;;
68074;SDS011;54864;52.002;5.468;2022-08-02T10:24:05;7.88;;;5.28;;
68074;SDS011;54864;52.002;5.468;2022-08-02T10:25:31;8.38;;;4.90;;
68074;SDS011;54864;52.002;5.468;2022-08-02T10:26:54;7.90;;;4.72;;
68074;SDS011;54864;52.002;5.468;2022-08-02T10:28:22;10.23;;;5.32;;
68074;SDS011;54864;52.002;5.468;2022-08-02T10:29:49;7.47;;;4.30;;
68074;SDS011;54864;52.002;5.468;2022-08-02T10:31:14;11.10;;;4.35;;
68074;SDS011;54864;52.002;5.468;2022-08-02T10:32:43;7.60;;;5.05;;
68074;SDS011;54864;52.002;5.468;2022-08-02T10:34:07;7.13;;;5.25;;